LIPZ/VCE METAR and TAF weather

Enter ICAO airport designator
Station Type Date Time Source
LIPZ METAR 2018/12/11 20:20 UTC NOAA

LIPZ 112020Z 27004KT 230V320 CAVOK 04/M03 Q1019 NOSIG


Station Type Date Time Source
LIPZ Decoded METAR 2018/12/11 20:20 UTC NOAA

Venezia / Tessera, Italy (LIPZ) 45-30N 012-20E 6M
Dec 11, 2018 - 03:20 PM EST / 2018.12.11 2020 UTC
Wind: from the W (270 degrees) at 5 MPH (4 KT) (direction variable):0
Visibility: greater than 7 mile(s):0
Temperature: 39 F (4 C)
Dew Point: 26 F (-3 C)
Relative Humidity: 60%
Pressure (altimeter): 30.09 in. Hg (1019 hPa)
ob: LIPZ 112020Z 27004KT 230V320 CAVOK 04/M03 Q1019 NOSIG
cycle: 20

Station Type Date Time Source
LIPZ TAF 2018/12/11 18:21 UTC NOAA

TAF LIPZ 111700Z 1118/1224 03010KT CAVOK


Example: see airport list